• Join FlightAware (Why Join?)
  • Login
  • US Flag 
11:39PM EDT


 

Airport Tracker/Info


-or-


 

Live Flight TrackerFlight Track Log ✈ SKW6296 ✈ 18-May-2013 ✈ KAUS - KLAX

Flight Track Log - Related Links

Times and Time Zones

All times are in EDT time to prevent confusion due to time zone crossing. See the SKW6296 flight status page for this flight to view local times or setup timezone preferences in your user account.

Time Position Orientation Groundspeed Altitude Reporting Facility
EDT Latitude Longitude Course Direction KTS MPH feet Rate Location/Type
09:01AM 30.3832 -97.6240 280° West  Level FlightAware Approximate
09:01AM 30.1644 -97.7783 278° West 246 283 5,200  Level Houston Center
09:02AM 30.4013 -97.7485 276° West  Level FlightAware Approximate
09:02AM 30.2006 -97.8625 296° West 279 321 7,200  Level Houston Center
09:03AM 30.4118 -97.8742 276° West  Level FlightAware Approximate
09:03AM 30.2272 -97.9622 287° West 302 348 9,700  Level Houston Center
09:04AM 30.4167 -98.0003 270° West  Level FlightAware Approximate
09:04AM 30.2469 -98.0611 283° West 314 361 11,400  Level Houston Center
09:05AM 30.4303 -98.1255 278° West  Level FlightAware Approximate
09:05AM 30.2694 -98.1717 283° West 328 377 13,900  Level Houston Center
09:06AM 30.4459 -98.2505 278° West  Level FlightAware Approximate
09:06AM 30.2897 -98.2744 283° West 329 379 15,800  Level Houston Center
09:07AM 30.3114 -98.3747 284° West 345 397 17,500 1,740 Climbing Houston Center
09:08AM 30.3342 -98.4867 283° West 354 407 19,400 1,860 Climbing Houston Center
09:09AM 30.3581 -98.5986 284° West 354 407 21,400 1,680 Climbing Houston Center
09:10AM 30.3803 -98.7142 283° West 362 417 22,900 1,500 Climbing Houston Center
09:11AM 30.4047 -98.8314 284° West 371 427 24,500 1,440 Climbing Houston Center
09:12AM 30.4292 -98.9481 284° West 370 426 25,900 1,380 Climbing Houston Center
09:13AM 30.4564 -99.0878 283° West 376 433 27,400 1,260 Climbing Houston Center
09:14AM 30.4797 -99.1994 284° West 382 440 28,500 1,080 Climbing Houston Center
09:15AM 30.5028 -99.3206 282° West 386 444 29,700 1,080 Climbing Houston Center
09:16AM 30.5297 -99.4544 283° West 387 445 30,700 780 Climbing Houston Center
09:17AM 30.5547 -99.5636 285° West 392 451 31,300 720 Climbing Houston Center
09:18AM 30.5819 -99.6892 284° West 400 460 32,200 1,200 Climbing Houston Center
09:19AM 30.6111 -99.8339 283° West 384 442 33,800 1,200 Climbing Houston Center
09:20AM 30.6378 -99.9525 285° West 381 438 34,700 900 Climbing Houston Center
09:21AM 30.6636 -100.0722 284° West 381 438 35,700 780 Climbing Houston Center
09:22AM 30.6894 -100.1911 284° West 379 436 36,300 540 Climbing Houston Center
09:23AM 30.7147 -100.3117 284° West 386 444 36,900 720 Climbing Houston Center
09:24AM 30.7400 -100.4289 284° West 379 436 37,800 480 Climbing Houston Center
09:25AM 30.7625 -100.5456 283° West 374 430 38,000 60 Climbing Houston Center
09:26AM 30.7928 -100.6883 284° West 379 436 38,000  Level Houston Center
09:27AM 30.8178 -100.8089 284° West 385 443 38,000  Level Houston Center
09:28AM 30.8417 -100.9303 283° West 386 444 38,000  Level Houston Center
09:29AM 30.8669 -101.0489 284° West 381 438 38,000  Level Houston Center
09:30AM 30.8911 -101.1681 283° West 380 437 38,000  Level Houston Center
09:31AM 30.9153 -101.2844 284° West 375 432 38,000  Level Houston Center
09:32AM 30.9369 -101.4036 282° West 377 434 38,000  Level Albuquerque Center
09:33AM 30.9611 -101.5228 283° West 377 434 38,000  Level Albuquerque Center
09:34AM 30.9847 -101.6411 283° West 377 434 38,000  Level Albuquerque Center
09:35AM 31.0089 -101.7614 283° West 378 435 38,000  Level Albuquerque Center
09:36AM 31.0319 -101.8822 283° West 380 437 38,000  Level Albuquerque Center
09:37AM 31.0564 -102.0083 283° West 396 456 38,000  Level Albuquerque Center
09:38AM 31.0794 -102.1281 283° West 385 443 38,000  Level Albuquerque Center
09:39AM 31.1033 -102.2483 283° West 381 438 38,000  Level Albuquerque Center
09:40AM 31.1269 -102.3686 283° West 381 438 38,000  Level Albuquerque Center
09:41AM 31.1503 -102.4892 283° West 381 438 38,000  Level Albuquerque Center
09:42AM 31.1728 -102.6150 282° West 377 434 38,000  Level Albuquerque Center
09:43AM 31.1958 -102.7342 283° West 377 434 38,000  Level Albuquerque Center
09:44AM 31.2183 -102.8544 282° West 378 435 38,000  Level Albuquerque Center
09:45AM 31.2414 -102.9742 283° West 379 436 38,000  Level Albuquerque Center
09:46AM 31.2636 -103.0936 282° West 378 435 38,000  Level Albuquerque Center
09:47AM 31.2861 -103.2136 282° West 377 434 38,000  Level Albuquerque Center
09:48AM 31.3072 -103.3336 282° West 377 434 38,000  Level Albuquerque Center
09:49AM 31.3300 -103.4544 282° West 379 436 38,000  Level Albuquerque Center
09:50AM 31.3528 -103.5756 282° West 382 440 38,000  Level Albuquerque Center
09:51AM 31.3775 -103.7206 281° West 380 437 38,000  Level Albuquerque Center
09:52AM 31.3969 -103.8233 283° West 383 441 38,000  Level Albuquerque Center
09:53AM 31.4275 -103.9428 287° West 384 442 38,000  Level Albuquerque Center
09:54AM 31.4603 -104.0636 288° West 389 448 38,000  Level Albuquerque Center
09:56AM 31.4986 -104.2094 287° West 391 450 38,000  Level Albuquerque Center
09:57AM 31.5319 -104.3292 288° West 389 448 38,000  Level Albuquerque Center
09:58AM 31.5636 -104.4492 287° West 388 447 38,000  Level Albuquerque Center
09:59AM 31.5942 -104.5683 287° West 385 443 38,000  Level Albuquerque Center
10:00AM 31.6264 -104.6883 288° West 386 444 38,000 -60 Level Albuquerque Center
10:01AM 31.6572 -104.8056 287° West 382 440 37,900  Descending Albuquerque Center
10:02AM 31.6878 -104.9258 287° West 383 441 38,000  Climbing Albuquerque Center
10:03AM 31.7194 -105.0467 287° West 386 444 38,000  Level Albuquerque Center
10:04AM 31.7511 -105.1697 287° West 390 449 38,000  Level Albuquerque Center
10:05AM 31.7825 -105.2942 287° West 394 453 38,000  Level Albuquerque Center
10:06AM 31.8208 -105.4436 287° West 402 463 38,000  Level Albuquerque Center
10:07AM 31.8525 -105.5686 287° West 401 461 38,000  Level Albuquerque Center
10:08AM 31.8842 -105.6936 287° West 401 461 38,000  Level Albuquerque Center
10:09AM 31.9158 -105.8178 287° West 398 458 38,000  Level Albuquerque Center
10:10AM 31.9486 -105.9481 287° West 395 455 38,000  Level Albuquerque Center
10:11AM 31.9794 -106.0714 286° West 394 453 38,000  Level Albuquerque Center
10:12AM 32.0106 -106.1936 287° West 392 451 38,000  Level Albuquerque Center
10:13AM 32.0403 -106.3172 286° West 392 451 38,000  Level Albuquerque Center
10:14AM 32.0714 -106.4411 287° West 394 453 38,000  Level Albuquerque Center
10:15AM 32.1011 -106.5644 286° West 392 451 38,000  Level Albuquerque Center
10:16AM 32.1322 -106.6875 287° West 392 451 38,000  Level Albuquerque Center
10:17AM 32.1619 -106.8117 286° West 392 451 38,000  Level Albuquerque Center
10:18AM 32.1964 -106.9542 286° West 393 452 38,000  Level Albuquerque Center
10:19AM 32.2283 -107.0867 286° West 391 450 38,000  Level Albuquerque Center
10:20AM 32.2578 -107.2103 286° West 393 452 38,000  Level Albuquerque Center
10:21AM 32.2853 -107.3361 285° West 398 458 38,000  Level Albuquerque Center
10:22AM 32.3136 -107.4600 285° West 396 456 38,000  Level Albuquerque Center
10:23AM 32.3453 -107.5917 286° West 399 459 38,000  Level Albuquerque Center
10:24AM 32.3756 -107.7194 286° West 402 463 38,000  Level Albuquerque Center
10:25AM 32.4050 -107.8478 285° West 403 464 38,000  Level Albuquerque Center
10:26AM 32.4339 -107.9739 285° West 400 460 38,000  Level Albuquerque Center
10:27AM 32.4656 -108.1119 285° West 393 452 38,000  Level Albuquerque Center
10:28AM 32.4944 -108.2311 286° West 383 441 38,000  Level Albuquerque Center
10:29AM 32.5219 -108.3528 285° West 384 442 38,000  Level Albuquerque Center
10:30AM 32.5492 -108.4750 285° West 386 444 38,000  Level Albuquerque Center
10:31AM 32.5767 -108.5964 285° West 384 442 38,000  Level Albuquerque Center
10:32AM 32.6056 -108.7183 286° West 384 442 38,000  Level Albuquerque Center
10:33AM 32.6325 -108.8414 285° West 386 444 38,000  Level Albuquerque Center
10:34AM 32.6594 -108.9631 285° West 383 441 38,000  Level Albuquerque Center
10:35AM 32.6919 -109.1103 285° West 384 442 38,000  Level Albuquerque Center
10:36AM 32.7197 -109.2344 285° West 388 447 38,000  Level Albuquerque Center
10:37AM 32.7469 -109.3594 285° West 391 450 38,000  Level Albuquerque Center
10:38AM 32.7742 -109.4856 284° West 393 452 38,000  Level Albuquerque Center
10:39AM 32.8019 -109.6108 285° West 394 453 38,000  Level Albuquerque Center
10:40AM 32.8292 -109.7372 284° West 396 456 38,000  Level Albuquerque Center
10:41AM 32.8553 -109.8622 284° West 393 452 38,000  Level Albuquerque Center
10:42AM 32.8817 -109.9850 284° West 389 448 38,000  Level Albuquerque Center
10:44AM 32.9169 -110.1358 286° West 394 453 38,000  Level Albuquerque Center
10:45AM 32.9425 -110.2575 284° West 387 445 38,000  Level Albuquerque Center
10:46AM 32.9669 -110.3786 284° West 381 438 38,000  Level Albuquerque Center
10:47AM 32.9928 -110.4981 284° West 377 434 38,000  Level Albuquerque Center
10:48AM 33.0178 -110.6161 284° West 373 429 38,000  Level Albuquerque Center
10:49AM 33.0536 -110.7347 290° West 367 422 38,000  Level Albuquerque Center
10:50AM 33.0850 -110.8503 288° West 366 421 38,000  Level Albuquerque Center
10:51AM 33.1192 -110.9672 289° West 372 428 38,000  Level Albuquerque Center
10:52AM 33.1597 -111.1103 289° West 378 435 38,000  Level Albuquerque Center
10:53AM 33.1939 -111.2319 289° West 384 442 38,000  Level Albuquerque Center
10:54AM 33.2275 -111.3536 288° West 385 443 38,000  Level Albuquerque Center
10:55AM 33.2614 -111.4744 289° West 383 441 38,000  Level Albuquerque Center
10:56AM 33.2942 -111.5964 288° West 384 442 38,000  Level Albuquerque Center
10:57AM 33.3281 -111.7169 289° West 383 441 38,000  Level Albuquerque Center
10:58AM 33.3608 -111.8375 288° West 382 440 38,000  Level Albuquerque Center
10:59AM 33.3939 -111.9569 288° West 380 437 38,000  Level Albuquerque Center
11:00AM 33.4319 -112.1000 288° West 377 434 38,000  Level Albuquerque Center
11:01AM 33.4636 -112.2167 288° West 371 427 38,000  Level Albuquerque Center
11:02AM 33.4953 -112.3331 288° West 368 423 38,000  Level Albuquerque Center
11:03AM 33.5261 -112.4478 288° West 362 417 38,000  Level Albuquerque Center
11:04AM 33.5572 -112.5631 288° West 363 418 38,000  Level Albuquerque Center
11:05AM 33.5867 -112.6733 288° West 363 418 38,000  Level Albuquerque Center
11:06AM 33.6228 -112.8122 287° West 365 420 38,000  Level Albuquerque Center
11:07AM 33.6494 -112.9128 288° West 369 425 38,000  Level Albuquerque Center
11:08AM 33.6872 -113.0539 288° West 370 426 38,000  Level Albuquerque Center
11:09AM 33.7175 -113.1722 287° West 371 427 38,000  Level Albuquerque Center
11:10AM 33.7486 -113.2900 288° West 371 427 38,000  Level Albuquerque Center
11:11AM 33.7797 -113.4089 288° West 373 429 38,000  Level Albuquerque Center
11:12AM 33.8094 -113.5275 287° West 372 428 38,000  Level Albuquerque Center
11:13AM 33.8372 -113.6467 286° West 369 425 38,000  Level Albuquerque Center
11:14AM 33.8531 -113.7694 279° West 372 428 38,000  Level Albuquerque Center
11:15AM 33.8736 -113.9144 280° West 369 425 38,000  Level Albuquerque Center
11:16AM 33.8903 -114.0350 279° West 367 422 38,000  Level Albuquerque Center
11:17AM 33.9061 -114.1553 279° West 365 420 38,000  Level Albuquerque Center
11:18AM 33.9214 -114.2631 280° West 361 415 38,000  Level Albuquerque Center
11:20AM 33.9397 -114.4056 279° West 360 414 38,000  Level Albuquerque Center
11:21AM 33.9572 -114.5378 279° West 359 413 38,000  Level Los Angeles Center
11:22AM 33.9731 -114.6542 279° West 355 409 38,000  Level Los Angeles Center
11:23AM 33.9881 -114.7717 279° West 355 409 38,000  Level Los Angeles Center
11:24AM 34.0042 -114.8897 279° West 357 411 38,000  Level Los Angeles Center
11:25AM 34.0208 -115.0297 278° West 355 409 38,000  Level Los Angeles Center
11:26AM 34.0361 -115.1492 279° West 362 417 38,000  Level Los Angeles Center
11:27AM 34.0503 -115.2681 278° West 361 415 38,000  Level Los Angeles Center
11:28AM 34.0661 -115.3872 279° West 361 415 38,000  Level Los Angeles Center
11:29AM 34.0819 -115.5078 279° West 364 419 38,000  Level Los Angeles Center
11:30AM 34.0953 -115.6281 278° West 364 419 38,000  Level Los Angeles Center
11:31AM 34.1114 -115.7725 278° West 363 418 38,000 -660 Level Los Angeles Center
11:32AM 34.0931 -115.8972 260° West 378 435 36,700 -1,680 Descending Los Angeles Center
11:33AM 34.0736 -116.0272 260° West 389 448 34,600 -2,160 Descending Los Angeles Center
11:34AM 34.0544 -116.1636 260° West 407 468 32,300 -2,280 Descending Los Angeles Center
11:35AM 34.0356 -116.2944 260° West 403 464 30,000 -2,160 Descending Los Angeles Center
11:36AM 34.0153 -116.4208 259° West 392 451 27,900 -2,220 Descending Los Angeles Center
11:37AM 33.9994 -116.5681 263° West 376 433 25,500 -2,160 Descending Los Angeles Center
11:38AM 33.9908 -116.6847 265° West 360 414 23,500 -1,980 Descending Los Angeles Center
11:39AM 33.9806 -116.7989 264° West 350 403 21,500 -1,980 Descending Los Angeles Center
11:40AM 33.9714 -116.9128 264° West 345 397 19,500 -2,100 Descending Los Angeles Center
11:41AM 33.9667 -116.9833 265° West 335 386 18,300 -1,680 Descending Southern California TRACON
11:42AM 33.9500 -117.1000 260° West 337 388 17,000 -900 Descending Southern California TRACON
11:43AM 33.9500 -117.2167 270° West 337 388 16,600 -720 Descending Southern California TRACON
11:44AM 33.9333 -117.3167 259° West 342 394 15,600 -1,560 Descending Southern California TRACON
11:45AM 33.9500 -117.4333 280° West 327 376 13,500 -2,220 Descending Southern California TRACON
11:46AM 33.9833 -117.5167 296° West 314 361 11,400 -1,740 Descending Southern California TRACON
11:47AM 34.0167 -117.6167 292° West 322 371 10,100 -720 Descending Southern California TRACON
11:48AM 34.0000 -117.7000 256° West 275 316 10,000 -780 Descending Southern California TRACON
11:49AM 34.0000 -117.8000 270° West 273 314 8,700 -1,440 Descending Southern California TRACON
11:50AM 33.9833 -117.9000 259° West 281 323 7,000 -1,440 Descending Southern California TRACON
11:51AM 33.9833 -117.9833 270° West 275 316 5,800 -1,080 Descending Southern California TRACON
11:52AM 33.9667 -118.0667 256° West 264 304 5,000 -780 Descending Southern California TRACON
11:53AM 33.9619 -118.1328 265° West 251 289 4,400 -660 Descending Los Angeles Center